Stroh, Indiana
Current Conditions -  °F | °C
As of 2:15 PM on Saturday 25 Oct 2014 (Local Time) from KANQ Reporting Station
NA  
Wind Chill: 66°   Ceiling: NA
Heat Index: 66°   Visibility: NA
Dew Point: 55°   Wind: 10mph
Humidity: 68%   Direction: 270°W
Pressure: 29.86"   Gusts: NA
Location:  41.58°N, 85.2°W
Report Text: KANQ 251815Z AUTO 27009KT 19/13 A2986 RMK
Loading
Personal Weather Stations






























Interactive Weather Map
Tropical Storm Tracking
New forecast layout! Learn more

10-Day Weather Forecast

Advertisements
Track Severe Weather on mobile